• Join FlightAware (Why Join?)
  • Login
  • US Flag 
06:27PM EST


 

Airport Tracker/Info


-or-


 

Live Flight TrackerFlight Track Log ✈ UAL4843 ✈ 17-Apr-2013 ✈ KBUF - KCLE

Flight Track Log - Related Links

Times and Time Zones

All times are in EDT time to prevent confusion due to time zone crossing. See the UAL4843 flight status page for this flight to view local times or setup timezone preferences in your user account.

Time Position Orientation Groundspeed Altitude Reporting Facility
EDT Latitude Longitude Course Direction KTS MPH feet Rate Location/Type
01:34PM 42.9500 -78.7167 56° Northeast 118 136 1,400  Level Buffalo TRACON
01:35PM 42.9667 -78.6833 56° Northeast 139 160 2,500 1,260 Climbing Buffalo TRACON
01:36PM 43.0000 -78.6333 48° Northeast 167 192 4,100 1,440 Climbing Buffalo TRACON
01:37PM 42.9747 -78.6025 138° Southeast 156 180 6,000 1,320 Climbing Cleveland Center
01:38PM 42.9294 -78.6294 204° Southwest 149 171 7,200 1,140 Climbing Cleveland Center
01:39PM 42.8839 -78.6592 206° Southwest 176 203 8,300 960 Climbing Cleveland Center
01:40PM 42.8386 -78.6919 208° Southwest 194 223 9,200 900 Climbing Cleveland Center
01:41PM 42.7892 -78.7189 202° Southwest 200 230 10,200 960 Climbing Cleveland Center
01:42PM 42.7397 -78.7569 209° Southwest 194 223 11,200 900 Climbing Cleveland Center
01:43PM 42.6861 -78.7925 206° Southwest 205 236 12,100 420 Climbing Cleveland Center
01:44PM 42.6283 -78.8308 206° Southwest 221 254 12,100  Level Cleveland Center
01:45PM 42.5642 -78.8719 205° Southwest 237 273 12,100  Level Cleveland Center
01:46PM 42.4983 -78.9161 206° Southwest 251 289 12,100  Level Cleveland Center
01:47PM 42.4406 -78.9711 215° Southwest 258 297 12,100  Level Cleveland Center
01:48PM 42.4083 -79.0561 243° Southwest 252 290 12,100  Level Cleveland Center
01:49PM 42.3742 -79.1414 242° Southwest 252 290 12,100  Level Cleveland Center
01:50PM 42.3397 -79.2208 240° Southwest 252 290 12,100 -60 Level Cleveland Center
01:51PM 42.3053 -79.3086 242° Southwest 260 299 12,000 -60 Descending Cleveland Center
01:52PM 42.2706 -79.3906 240° Southwest 260 299 12,000  Level Cleveland Center
01:53PM 42.2361 -79.4756 241° Southwest 265 305 12,000  Level Cleveland Center
01:54PM 42.1994 -79.5631 241° Southwest 265 305 12,000  Level Cleveland Center
01:55PM 42.1667 -79.6447 242° Southwest 265 305 12,000  Level Cleveland Center
01:56PM 42.1278 -79.7319 239° Southwest 265 305 12,000  Level Cleveland Center
01:57PM 42.0931 -79.8192 242° Southwest 265 305 12,000  Level Cleveland Center
01:58PM 42.0581 -79.8981 239° Southwest 265 305 12,000  Level Cleveland Center
01:59PM 42.0250 -79.9822 242° Southwest 260 299 12,000  Level Cleveland Center
02:00PM 41.9900 -80.0636 240° Southwest 255 293 12,000  Level Cleveland Center
02:01PM 41.9550 -80.1419 239° Southwest 250 288 12,100  Climbing Cleveland Center
02:02PM 41.9219 -80.2231 241° Southwest 250 288 12,100  Level Cleveland Center
02:03PM 41.8867 -80.3042 240° Southwest 250 288 12,100  Level Cleveland Center
02:04PM 41.8556 -80.3769 240° Southwest 250 288 12,100  Level Cleveland Center
02:05PM 41.8222 -80.4578 241° Southwest 249 287 12,100  Level Cleveland Center
02:06PM 41.7869 -80.5386 240° Southwest 249 287 12,100  Level Cleveland Center
02:07PM 41.7514 -80.6194 239° Southwest 249 287 12,100 -60 Level Cleveland Center
02:08PM 41.7161 -80.7056 241° Southwest 249 287 12,000 -60 Descending Cleveland Center
02:09PM 41.6806 -80.7861 239° Southwest 249 287 12,000 -60 Level Cleveland Center
02:10PM 41.6447 -80.8694 240° Southwest 254 292 11,900 -600 Descending Cleveland Center
02:11PM 41.6050 -80.9608 240° Southwest 254 292 10,900 -1,020 Descending Cleveland Center
02:12PM 41.5839 -81.0050 237° Southwest 269 310 10,400 -1,020 Descending Cleveland Center
02:12PM 41.5650 -81.0494 240° Southwest 265 305 9,900 -840 Descending Cleveland Center
02:13PM 41.5292 -81.1294 239° Southwest 265 305 9,200 -480 Descending Cleveland Center
02:14PM 41.5058 -81.2208 251° West 265 305 9,000 -180 Descending Cleveland Center
02:15PM 41.5036 -81.2403 261° West 255 293 9,000 -120 Level Cleveland Center
02:15PM 41.4950 -81.3122 261° West 249 287 8,900 -420 Descending Cleveland Center
02:16PM 41.4925 -81.3372 262° West 250 288 8,600 -900 Descending Cleveland Center
02:16PM 41.4817 -81.4092 259° West 260 299 8,000 -840 Descending Cleveland Center
02:17PM 41.4772 -81.4339 257° West 264 304 7,800 -900 Descending Cleveland Center
02:17PM 41.4706 -81.5031 263° West 260 299 7,100 -840 Descending Cleveland Center
02:18PM 41.4683 -81.5281 263° West 259 298 7,000 -120 Descending Cleveland Center
02:18PM 41.4572 -81.5944 257° West 260 299 7,000  Level Cleveland Center
02:19PM 41.4231 -81.6825 243° Southwest 244 281 7,000  Level Cleveland Center
02:20PM 41.3933 -81.7539 241° Southwest 249 287 7,000 -60 Level Cleveland Center
02:21PM 41.3592 -81.8281 238° Southwest 249 287 6,900 -360 Descending Cleveland Center
02:22PM 41.3486 -81.8444 229° Southwest 241 277 6,600 -1,440 Descending Cleveland Center
02:23PM 41.3061 -81.9100 229° Southwest 237 273 5,100 -1,380 Descending Cleveland Center
02:24PM 41.2719 -81.9811 237° Southwest 260 299 3,900 -1,020 Descending Cleveland Center
02:25PM 41.3303 -81.9850 357° North 202 232 3,000 -900 Descending Cleveland Center
02:26PM 41.3642 -81.9306 50° Northeast 178 205 2,000 -900 Descending Cleveland Center
02:27PM 41.3833 -81.9006 50° Northeast 117 135 1,300 -780 Descending Cleveland Center